Time;durP1;ratioP1;P1;durP2;ratioP2;P2;SDS_P1;SDS_P2;PMS_P1;PMS_P2;Temp;Humidity;BMP_temperature;BMP_pressure;BME280_temperature;BME280_humidity;BME280_pressure;Samples;Min_cycle;Max_cycle;Signal;HPM_P1;HPM_P2
2021/10/16 00:02:11;;;;;;;7.17;5.30;;;;;;;9.86;87.36;97061.69;5075707;28;20196;-70
2021/10/16 00:04:36;;;;;;;7.20;5.93;;;;;;;9.72;88.15;97072.50;5057878;28;20495;-69
2021/10/16 00:07:02;;;;;;;8.80;6.13;;;;;;;9.87;87.56;97065.13;5075320;28;20189;-70
2021/10/16 00:09:27;;;;;;;6.63;5.63;;;;;;;9.78;87.92;97066.44;5075251;28;20192;-69
2021/10/16 00:11:53;;;;;;;8.60;5.40;;;;;;;9.73;88.46;97071.50;5073184;28;20291;-69
2021/10/16 00:14:18;;;;;;;7.03;6.10;;;;;;;9.74;88.56;97073.91;5056945;28;20583;-70
2021/10/16 00:16:45;;;;;;;7.10;6.17;;;;;;;9.74;88.80;97070.50;5075792;28;20201;-69
2021/10/16 00:19:10;;;;;;;7.43;6.13;;;;;;;9.60;88.94;97072.41;5075364;28;20620;-70
2021/10/16 00:21:37;;;;;;;10.77;6.43;;;;;;;9.62;88.66;97074.81;5075574;28;20208;-69
2021/10/16 00:24:03;;;;;;;8.40;6.40;;;;;;;9.62;88.78;97077.44;5076099;28;20182;-69
2021/10/16 00:26:29;;;;;;;11.23;7.53;;;;;;;9.53;88.55;97080.28;5075446;28;20664;-69
2021/10/16 00:28:54;;;;;;;9.07;6.73;;;;;;;9.43;88.17;97074.72;5075567;28;20189;-70
2021/10/16 00:31:20;;;;;;;7.57;6.57;;;;;;;9.44;87.32;97075.53;5057252;28;21036;-70
2021/10/16 00:33:45;;;;;;;7.67;5.97;;;;;;;9.44;87.13;97080.78;5057486;28;20203;-70
2021/10/16 00:36:10;;;;;;;8.67;5.90;;;;;;;9.43;86.47;97079.97;5075168;28;20185;-70
2021/10/16 00:38:36;;;;;;;5.83;5.23;;;;;;;9.42;86.03;97085.41;5075186;28;20703;-70
2021/10/16 00:41:02;;;;;;;6.53;5.37;;;;;;;9.58;84.87;97083.06;5075226;28;20283;-70
2021/10/16 00:43:27;;;;;;;6.67;5.03;;;;;;;9.52;85.41;97072.69;5075476;28;20193;-70
2021/10/16 00:45:53;;;;;;;6.17;5.30;;;;;;;9.53;85.35;97075.06;5074802;28;20185;-70
2021/10/16 00:48:18;;;;;;;9.77;6.00;;;;;;;9.52;84.94;97076.09;5075203;28;20544;-70
2021/10/16 00:50:44;;;;;;;9.20;5.40;;;;;;;9.53;84.99;97077.69;5075080;28;20242;-70
2021/10/16 00:53:11;;;;;;;6.97;5.57;;;;;;;9.51;85.30;97084.16;5074926;28;20184;-70
2021/10/16 00:55:37;;;;;;;9.60;5.60;;;;;;;9.48;85.70;97071.47;5074354;28;20570;-70
2021/10/16 00:58:02;;;;;;;8.07;6.20;;;;;;;9.69;84.95;97080.81;5073782;28;20201;-71
2021/10/16 01:00:28;;;;;;;8.67;6.07;;;;;;;9.70;84.60;97069.28;5075252;28;20227;-70
2021/10/16 01:02:53;;;;;;;6.70;5.27;;;;;;;9.85;84.03;97067.19;5074986;28;20173;-70
2021/10/16 01:05:19;;;;;;;6.87;5.53;;;;;;;9.90;84.00;97067.34;5074594;28;20585;-70
2021/10/16 01:07:44;;;;;;;9.00;5.00;;;;;;;9.85;83.93;97062.75;5074089;28;20197;-70
2021/10/16 01:10:12;;;;;;;6.17;5.57;;;;;;;9.89;83.89;97065.72;5074735;28;20185;-70
2021/10/16 01:12:39;;;;;;;6.33;4.90;;;;;;;9.92;84.16;97058.22;5074483;28;20193;-70
2021/10/16 01:15:11;;;;;;;9.33;5.63;;;;;;;9.82;84.38;97059.75;5073747;28;20665;-70
2021/10/16 01:17:38;;;;;;;5.97;5.17;;;;;;;9.86;84.76;97061.69;5074738;28;20578;-70
2021/10/16 01:20:08;;;;;;;7.93;5.90;;;;;;;9.97;84.81;97055.75;5074331;28;20516;-70
2021/10/16 01:22:37;;;;;;;7.10;5.57;;;;;;;10.07;84.62;97049.25;5074800;28;20268;-70
2021/10/16 01:25:05;;;;;;;8.53;6.40;;;;;;;10.08;84.12;97043.81;5074502;28;20182;-71
2021/10/16 01:27:32;;;;;;;7.93;6.43;;;;;;;10.17;83.79;97046.97;5074253;28;20212;-70
2021/10/16 01:29:57;;;;;;;8.17;6.33;;;;;;;10.15;84.36;97051.56;5074405;28;20185;-70
2021/10/16 01:32:23;;;;;;;8.40;5.70;;;;;;;10.15;84.53;97052.38;5074178;28;20664;-70
2021/10/16 01:34:48;;;;;;;10.23;6.07;;;;;;;10.12;84.76;97047.59;5073962;28;20195;-70
2021/10/16 01:37:14;;;;;;;7.30;6.07;;;;;;;10.15;84.65;97048.94;5073956;28;20211;-71
2021/10/16 01:39:39;;;;;;;9.57;6.50;;;;;;;10.18;84.30;97041.50;5055530;28;20665;-70
2021/10/16 01:42:04;;;;;;;9.30;6.40;;;;;;;10.19;84.60;97037.88;5073846;28;20219;-70
2021/10/16 01:44:30;;;;;;;8.20;6.73;;;;;;;10.19;84.56;97032.63;5072868;28;20638;-70
2021/10/16 01:46:55;;;;;;;9.30;6.63;;;;;;;10.14;84.80;97027.19;5073479;28;20181;-70
2021/10/16 01:49:21;;;;;;;10.00;6.37;;;;;;;10.13;84.99;97025.63;5073945;28;20589;-70
2021/10/16 01:51:48;;;;;;;8.80;6.37;;;;;;;10.08;85.54;97030.72;5074109;28;20177;-70
2021/10/16 01:54:14;;;;;;;8.93;6.80;;;;;;;10.05;86.08;97025.09;5073156;28;20719;-72
2021/10/16 01:56:39;;;;;;;10.43;7.07;;;;;;;10.03;85.82;97030.53;5073199;28;20284;-70
2021/10/16 01:59:11;;;;;;;11.23;7.17;;;;;;;9.97;86.13;97037.44;5074345;28;20717;-70
2021/10/16 02:01:37;;;;;;;8.13;6.43;;;;;;;10.00;86.60;97029.16;5073803;28;20185;-70
2021/10/16 02:04:02;;;;;;;9.57;7.30;;;;;;;10.02;86.88;97032.38;5055801;28;20208;-70
2021/10/16 02:06:28;;;;;;;9.03;6.20;;;;;;;10.07;86.58;97039.56;5073560;28;20264;-70
2021/10/16 02:08:53;;;;;;;10.50;8.00;;;;;;;10.08;86.91;97040.38;5073028;28;20284;-70
2021/10/16 02:11:18;;;;;;;11.60;8.00;;;;;;;10.26;86.27;97038.59;5073190;28;20645;-70
2021/10/16 02:13:44;;;;;;;11.07;8.10;;;;;;;10.26;86.41;97035.97;5072981;28;20268;-70
2021/10/16 02:16:09;;;;;;;11.23;8.03;;;;;;;10.23;86.69;97033.78;5073139;28;20522;-70
2021/10/16 02:18:34;;;;;;;10.13;7.80;;;;;;;10.24;87.39;97037.22;5073462;28;20205;-70
2021/10/16 02:21:00;;;;;;;15.03;9.13;;;;;;;10.28;87.06;97033.13;5072961;28;20258;-71
2021/10/16 02:23:26;;;;;;;13.60;8.67;;;;;;;10.39;86.90;97032.41;5073477;28;20634;-70
2021/10/16 02:25:51;;;;;;;11.90;8.40;;;;;;;10.30;87.33;97033.72;5073032;28;20185;-70
2021/10/16 02:28:17;;;;;;;15.07;9.37;;;;;;;10.36;87.33;97030.25;5073061;28;20578;-71
2021/10/16 02:30:42;;;;;;;11.90;9.23;;;;;;;10.38;87.61;97030.81;5072101;28;20266;-71
2021/10/16 02:33:07;;;;;;;13.37;9.17;;;;;;;10.31;87.62;97027.44;5072433;28;20203;-70
2021/10/16 02:35:33;;;;;;;13.23;10.20;;;;;;;10.30;88.20;97029.28;5072610;28;20213;-70
2021/10/16 02:37:58;;;;;;;15.63;10.20;;;;;;;10.28;88.22;97022.66;5072678;28;20673;-70
2021/10/16 02:40:23;;;;;;;16.53;11.20;;;;;;;10.30;88.44;97023.25;5072941;28;20250;-70
2021/10/16 02:42:49;;;;;;;14.93;10.83;;;;;;;10.24;89.23;97026.75;5072517;28;20190;-70
2021/10/16 02:45:14;;;;;;;20.53;12.13;;;;;;;10.33;88.83;97026.22;5072393;28;20638;-70
2021/10/16 02:47:39;;;;;;;18.90;11.37;;;;;;;10.28;89.04;97026.09;5072755;28;20654;-70
2021/10/16 02:50:05;;;;;;;18.97;12.83;;;;;;;10.16;90.65;97027.81;5072937;28;20181;-70
2021/10/16 02:52:30;;;;;;;22.17;12.27;;;;;;;10.06;91.49;97032.72;5072650;28;20703;-70
2021/10/16 02:54:56;;;;;;;18.93;12.00;;;;;;;10.03;91.53;97038.38;5072374;28;20630;-70
2021/10/16 02:57:21;;;;;;;18.00;12.37;;;;;;;9.94;92.20;97030.03;5072345;28;20246;-71
2021/10/16 02:59:47;;;;;;;16.60;11.60;;;;;;;10.00;91.91;97041.44;5072216;28;20708;-70
2021/10/16 03:02:12;;;;;;;18.90;12.73;;;;;;;9.95;92.23;97041.31;5072300;28;20231;-69
2021/10/16 03:04:38;;;;;;;21.23;12.90;;;;;;;9.93;92.65;97045.94;5072178;28;20181;-70
2021/10/16 03:07:03;;;;;;;16.40;11.87;;;;;;;9.92;92.89;97036.47;5072571;28;20209;-70
2021/10/16 03:09:29;;;;;;;19.83;11.87;;;;;;;9.92;92.81;97036.47;5054568;28;20634;-69
2021/10/16 03:11:54;;;;;;;17.80;11.50;;;;;;;10.07;92.10;97041.41;5072574;28;20221;-69
2021/10/16 03:14:19;;;;;;;15.03;8.10;;;;;;;9.91;91.04;97046.19;5071801;28;20193;-70
2021/10/16 03:16:45;;;;;;;8.70;6.80;;;;;;;9.86;90.33;97040.75;5071467;28;20192;-70
2021/10/16 03:19:10;;;;;;;7.77;6.60;;;;;;;9.44;91.73;97049.38;5072712;28;20223;-70
2021/10/16 03:21:35;;;;;;;8.47;7.10;;;;;;;9.49;91.89;97049.53;5072759;28;20278;-69
2021/10/16 03:24:01;;;;;;;10.03;7.63;;;;;;;9.47;92.35;97051.59;5072415;28;20535;-70
2021/10/16 03:26:27;;;;;;;10.97;7.70;;;;;;;9.53;91.37;97042.84;5054026;28;20188;-71
2021/10/16 03:28:52;;;;;;;10.00;7.57;;;;;;;9.54;91.00;97041.84;5056419;28;20181;-71
2021/10/16 03:31:18;;;;;;;10.93;8.00;;;;;;;9.56;91.34;97045.88;5074294;28;20255;-70
2021/10/16 03:33:43;;;;;;;12.57;7.77;;;;;;;9.47;91.46;97047.13;5058597;28;20269;-70
2021/10/16 03:36:09;;;;;;;9.97;7.67;;;;;;;9.54;91.44;97052.31;5076359;28;20629;-70
2021/10/16 03:38:34;;;;;;;10.93;8.00;;;;;;;9.57;90.65;97042.25;5076157;28;20205;-70
2021/10/16 03:41:00;;;;;;;9.03;7.30;;;;;;;9.51;91.21;97044.91;5076149;28;20173;-70
2021/10/16 03:43:25;;;;;;;11.53;7.53;;;;;;;9.57;90.56;97036.19;5058499;28;20181;-70
2021/10/16 03:45:51;;;;;;;11.23;8.03;;;;;;;9.53;91.17;97033.19;5076085;28;20223;-70
2021/10/16 03:48:16;;;;;;;11.23;7.60;;;;;;;9.53;91.18;97040.25;5075746;28;20189;-70
2021/10/16 03:50:41;;;;;;;11.60;8.13;;;;;;;9.73;89.89;97037.47;5076397;28;20177;-70
2021/10/16 03:53:07;;;;;;;12.00;7.90;;;;;;;9.75;89.33;97036.22;5058129;28;20230;-70
2021/10/16 03:55:32;;;;;;;11.80;8.70;;;;;;;9.59;91.04;97045.44;5075847;28;20256;-70
2021/10/16 03:57:58;;;;;;;12.50;8.10;;;;;;;9.54;90.81;97047.88;5058022;28;20201;-71
2021/10/16 04:00:23;;;;;;;10.90;8.47;;;;;;;9.40;91.73;97045.59;5057299;28;20189;-71
2021/10/16 04:02:51;;;;;;;12.73;8.43;;;;;;;9.47;91.45;97034.03;5075084;28;20711;-70
2021/10/16 04:05:17;;;;;;;11.10;7.80;;;;;;;9.41;92.40;97041.97;5076219;28;20181;-70
2021/10/16 04:07:42;;;;;;;12.83;8.20;;;;;;;9.56;91.38;97045.06;5076130;28;20257;-70
2021/10/16 04:10:09;;;;;;;10.17;7.63;;;;;;;9.48;92.28;97045.31;5057704;28;20605;-69
2021/10/16 04:12:34;;;;;;;18.40;8.37;;;;;;;9.51;91.98;97043.09;5075273;28;20241;-71
2021/10/16 04:15:00;;;;;;;11.07;8.10;;;;;;;9.58;91.40;97053.50;5074794;28;20196;-70
2021/10/16 04:17:25;;;;;;;11.13;8.43;;;;;;;9.53;91.81;97051.50;5057760;28;20184;-70
2021/10/16 04:19:51;;;;;;;13.67;8.83;;;;;;;9.58;92.26;97050.91;5075825;28;20211;-71
2021/10/16 04:22:16;;;;;;;13.80;8.37;;;;;;;9.72;91.37;97043.72;5057874;28;20277;-70
2021/10/16 04:24:42;;;;;;;12.00;8.00;;;;;;;9.64;91.02;97049.25;5075083;28;20188;-70
2021/10/16 04:27:07;;;;;;;10.70;7.33;;;;;;;9.57;91.43;97050.09;5075313;28;20633;-70
2021/10/16 04:29:32;;;;;;;9.37;6.97;;;;;;;9.60;90.36;97041.00;5075134;28;20221;-71
2021/10/16 04:31:58;;;;;;;8.67;7.07;;;;;;;9.55;90.18;97046.06;5057608;28;20178;-70
2021/10/16 04:34:23;;;;;;;11.90;6.23;;;;;;;9.42;90.56;97052.19;5075444;28;20246;-70
2021/10/16 04:36:49;;;;;;;10.13;6.57;;;;;;;9.23;91.50;97047.13;5074972;28;20182;-70
2021/10/16 04:39:14;;;;;;;8.20;6.40;;;;;;;9.22;91.57;97045.50;5075367;28;20283;-70
2021/10/16 04:41:40;;;;;;;8.57;6.57;;;;;;;9.26;91.22;97044.06;5056630;28;20261;-70
2021/10/16 04:44:06;;;;;;;8.77;7.30;;;;;;;9.31;91.19;97050.25;5056411;28;20182;-70
2021/10/16 04:46:32;;;;;;;9.63;7.13;;;;;;;9.36;90.71;97045.19;5074311;28;20184;-70
2021/10/16 04:48:58;;;;;;;9.77;6.80;;;;;;;9.40;90.21;97049.00;5074864;28;20193;-70
2021/10/16 04:51:23;;;;;;;10.70;7.13;;;;;;;9.51;89.26;97053.56;5057205;28;20228;-70
2021/10/16 04:53:49;;;;;;;9.83;6.50;;;;;;;9.39;89.43;97050.00;5073508;28;20204;-70
2021/10/16 04:56:14;;;;;;;9.37;7.63;;;;;;;9.56;88.21;97045.06;5050178;28;20260;-70
2021/10/16 04:58:39;;;;;;;10.33;6.97;;;;;;;9.41;89.10;97048.00;5074460;28;20569;-70
2021/10/16 05:01:05;;;;;;;9.43;6.73;;;;;;;9.44;89.16;97046.75;5074776;28;20181;-70
2021/10/16 05:03:30;;;;;;;8.80;6.50;;;;;;;9.51;88.21;97040.47;5074468;28;20196;-70
2021/10/16 05:05:56;;;;;;;12.03;6.30;;;;;;;9.37;88.74;97044.19;5074330;28;20643;-70
2021/10/16 05:08:21;;;;;;;8.13;6.27;;;;;;;9.42;89.12;97057.44;5074549;28;20186;-70
2021/10/16 05:10:47;;;;;;;8.13;6.93;;;;;;;9.46;88.56;97050.78;5055979;28;20225;-71
2021/10/16 05:13:12;;;;;;;9.50;6.47;;;;;;;9.38;89.26;97052.84;5074264;28;20166;-71
2021/10/16 05:15:37;;;;;;;8.63;5.90;;;;;;;9.55;88.30;97049.50;5073739;28;20193;-71
2021/10/16 05:18:03;;;;;;;7.17;6.03;;;;;;;9.42;88.75;97052.19;5074281;28;20193;-70
2021/10/16 05:20:28;;;;;;;8.00;6.10;;;;;;;9.31;89.57;97049.47;5074049;28;20190;-70
2021/10/16 05:22:54;;;;;;;8.67;6.57;;;;;;;9.35;89.54;97053.28;5074441;28;20538;-70
2021/10/16 05:25:19;;;;;;;6.73;6.00;;;;;;;9.46;89.25;97060.44;5074825;28;20177;-70
2021/10/16 05:27:45;;;;;;;8.13;6.53;;;;;;;9.51;88.81;97052.75;5073704;28;20198;-71
2021/10/16 05:30:10;;;;;;;10.07;6.40;;;;;;;9.54;88.78;97058.34;5074411;28;20280;-70
2021/10/16 05:32:36;;;;;;;11.47;6.33;;;;;;;9.44;89.11;97063.25;5073684;28;20217;-72
2021/10/16 05:35:02;;;;;;;11.43;7.20;;;;;;;9.49;89.15;97055.56;5073965;28;20755;-71
2021/10/16 05:37:28;;;;;;;7.77;6.63;;;;;;;9.27;90.07;97063.97;5074032;28;20286;-70
2021/10/16 05:39:53;;;;;;;8.30;6.20;;;;;;;9.41;88.93;97063.69;5073965;28;20587;-70
2021/10/16 05:42:19;;;;;;;9.83;6.53;;;;;;;9.41;89.63;97066.31;5074134;28;20188;-70
2021/10/16 05:44:44;;;;;;;9.13;6.43;;;;;;;9.47;89.02;97068.06;5073624;28;20536;-70
2021/10/16 05:47:10;;;;;;;7.70;6.37;;;;;;;9.54;88.73;97065.41;5073934;28;20177;-71
2021/10/16 05:49:36;;;;;;;12.17;6.67;;;;;;;9.60;88.64;97073.19;5073735;28;20650;-71
2021/10/16 05:52:02;;;;;;;8.53;6.47;;;;;;;9.60;88.36;97073.19;5055809;28;20174;-70
2021/10/16 05:54:27;;;;;;;8.70;6.80;;;;;;;9.62;88.86;97075.63;5055209;28;20185;-71
2021/10/16 05:56:53;;;;;;;9.33;6.00;;;;;;;9.69;88.16;97073.75;5073588;28;20334;-70
2021/10/16 05:59:18;;;;;;;8.53;6.73;;;;;;;9.85;88.08;97081.06;5055904;28;20632;-70
2021/10/16 06:01:44;;;;;;;9.93;7.07;;;;;;;9.86;87.44;97063.56;5073584;28;20719;-71
2021/10/16 06:04:09;;;;;;;9.33;6.80;;;;;;;9.84;88.39;97065.56;5073400;28;20189;-71
2021/10/16 06:06:34;;;;;;;8.87;7.27;;;;;;;9.87;88.16;97091.31;5073292;28;20669;-70
2021/10/16 06:09:00;;;;;;;9.20;7.47;;;;;;;9.82;88.29;97084.09;5073287;28;20193;-71
2021/10/16 06:11:25;;;;;;;8.57;7.00;;;;;;;9.85;88.52;97085.50;5073240;28;20772;-71
2021/10/16 06:13:51;;;;;;;6.63;5.87;;;;;;;9.93;88.41;97083.41;5072991;28;20196;-71
2021/10/16 06:16:16;;;;;;;10.03;6.53;;;;;;;9.59;89.16;97087.28;5073397;28;20544;-73
2021/10/16 06:18:43;;;;;;;7.97;7.07;;;;;;;9.23;91.97;97081.91;5072255;28;20258;-74
2021/10/16 06:21:09;;;;;;;8.67;6.63;;;;;;;8.91;94.80;97085.50;5073349;28;20189;-74
2021/10/16 06:23:35;;;;;;;10.67;7.30;;;;;;;9.16;93.25;97092.41;5073470;28;20182;-74
2021/10/16 06:26:00;;;;;;;9.57;7.70;;;;;;;9.69;90.95;97091.28;5073155;28;20215;-72
2021/10/16 06:28:26;;;;;;;10.73;7.83;;;;;;;9.94;89.52;97086.81;5073244;28;20209;-72
2021/10/16 06:30:51;;;;;;;9.03;7.23;;;;;;;9.96;88.90;97084.81;5073282;28;20192;-72
2021/10/16 06:33:17;;;;;;;12.83;7.40;;;;;;;9.57;90.88;97094.56;5058501;28;20223;-74
2021/10/16 06:35:42;;;;;;;7.53;6.60;;;;;;;9.77;90.19;97093.59;5072758;28;20215;-72
2021/10/16 06:38:08;;;;;;;7.77;6.13;;;;;;;9.87;90.35;97099.16;5072985;28;20201;-72
2021/10/16 06:40:33;;;;;;;8.87;6.97;;;;;;;10.04;88.95;97097.59;5055177;28;20644;-72
2021/10/16 06:42:59;;;;;;;9.00;6.60;;;;;;;9.92;88.70;97104.56;5073029;28;20185;-72
2021/10/16 06:45:25;;;;;;;9.83;5.60;;;;;;;9.89;88.87;97110.22;5073165;28;20181;-72
2021/10/16 06:47:51;;;;;;;8.03;6.30;;;;;;;9.72;89.78;97103.91;5073105;28;20185;-72
2021/10/16 06:50:16;;;;;;;9.83;6.03;;;;;;;9.84;90.18;97110.06;5072793;28;20322;-72
2021/10/16 06:52:41;;;;;;;9.03;6.60;;;;;;;9.99;89.18;97108.72;5072475;28;20216;-73
2021/10/16 06:55:07;;;;;;;9.43;7.00;;;;;;;10.15;89.18;97101.34;5072766;28;20645;-73
2021/10/16 06:57:33;;;;;;;9.10;7.17;;;;;;;10.35;88.39;97104.63;5073123;28;20193;-72
2021/10/16 06:59:58;;;;;;;9.23;6.60;;;;;;;10.54;86.13;97108.03;5072793;28;20228;-73
2021/10/16 07:02:23;;;;;;;8.60;6.10;;;;;;;10.28;87.08;97114.34;5072702;28;20254;-74
2021/10/16 07:04:49;;;;;;;9.00;6.63;;;;;;;10.13;88.38;97111.25;5071784;28;20213;-74
2021/10/16 07:07:14;;;;;;;8.70;6.57;;;;;;;10.21;88.20;97118.84;5072907;28;20712;-74
2021/10/16 07:09:40;;;;;;;8.07;6.23;;;;;;;10.09;88.68;97110.03;5072668;28;20250;-74
2021/10/16 07:12:08;;;;;;;9.53;7.70;;;;;;;10.31;87.68;97122.56;5072666;28;20232;-75
2021/10/16 07:14:33;;;;;;;9.73;7.73;;;;;;;10.05;88.42;97117.53;5071880;28;20209;-74
2021/10/16 07:16:59;;;;;;;12.27;8.33;;;;;;;10.26;88.04;97113.75;5072642;28;20597;-74
2021/10/16 07:19:24;;;;;;;11.60;7.87;;;;;;;10.40;87.55;97118.66;5072675;28;20288;-74
2021/10/16 07:21:50;;;;;;;9.70;7.70;;;;;;;10.50;87.51;97120.78;5073049;28;20207;-72
2021/10/16 07:24:16;;;;;;;10.83;7.80;;;;;;;10.63;86.77;97130.34;5072788;28;20180;-72
2021/10/16 07:26:41;;;;;;;11.50;8.87;;;;;;;10.57;86.56;97137.25;5072891;28;20186;-74
2021/10/16 07:29:07;;;;;;;12.53;9.63;;;;;;;10.47;87.55;97131.72;5073050;28;20196;-73
2021/10/16 07:31:32;;;;;;;13.93;8.90;;;;;;;10.59;87.37;97137.81;5054719;28;20181;-73
2021/10/16 07:34:00;;;;;;;14.17;9.77;;;;;;;10.77;86.41;97134.41;5072745;28;20685;-73
2021/10/16 07:36:32;;;;;;;13.63;9.90;;;;;;;10.83;85.94;97134.31;5054558;28;20536;-74
2021/10/16 07:38:57;;;;;;;16.73;9.50;;;;;;;10.51;87.33;97139.94;5072588;28;20550;-75
2021/10/16 07:41:23;;;;;;;12.80;8.57;;;;;;;10.39;88.13;97150.31;5073100;28;20189;-75
2021/10/16 07:43:48;;;;;;;8.10;6.53;;;;;;;10.42;88.30;97150.69;5072285;28;20658;-74
2021/10/16 07:46:13;;;;;;;10.30;6.83;;;;;;;10.48;87.18;97148.25;5072469;28;20189;-74
2021/10/16 07:48:39;;;;;;;11.93;7.73;;;;;;;10.42;87.11;97150.69;5071635;28;20200;-76
2021/10/16 07:51:04;;;;;;;10.40;7.77;;;;;;;10.13;87.97;97159.19;5071521;28;20180;-78
2021/10/16 07:53:29;;;;;;;11.07;8.07;;;;;;;10.19;88.09;97158.38;5066033;28;20561;-78
2021/10/16 07:55:55;;;;;;;11.57;7.97;;;;;;;10.30;88.04;97147.19;5061379;28;20181;-77
2021/10/16 07:58:22;;;;;;;10.43;8.43;;;;;;;10.36;87.28;97146.31;5072117;28;20205;-75
2021/10/16 08:00:47;;;;;;;13.07;8.80;;;;;;;10.35;87.16;97149.16;5072153;28;20177;-78
2021/10/16 08:03:13;;;;;;;14.27;9.07;;;;;;;10.39;86.52;97153.75;5072381;28;20229;-77
2021/10/16 08:05:38;;;;;;;14.40;9.30;;;;;;;10.37;87.15;97152.34;5071660;28;20213;-76
2021/10/16 08:08:04;;;;;;;12.80;8.93;;;;;;;10.20;87.46;97156.53;5072126;28;20173;-73
2021/10/16 08:10:29;;;;;;;14.77;9.63;;;;;;;10.23;87.76;97156.13;5071457;28;20216;-73
2021/10/16 08:12:55;;;;;;;18.30;9.30;;;;;;;10.38;87.30;97157.38;5072026;28;20281;-73
2021/10/16 08:15:20;;;;;;;12.23;8.00;;;;;;;10.43;86.30;97159.34;5071328;28;20173;-73
2021/10/16 08:17:46;;;;;;;14.73;9.60;;;;;;;10.60;85.88;97156.97;5074653;28;20189;-73
2021/10/16 08:20:11;;;;;;;16.07;10.60;;;;;;;10.35;86.75;97167.50;5075728;28;20611;-74
2021/10/16 08:22:41;;;;;;;18.10;11.17;;;;;;;10.36;87.72;97163.88;5075898;28;20672;-74
2021/10/16 08:25:08;;;;;;;22.37;11.40;;;;;;;10.58;87.15;97172.94;5075256;28;20201;-74
2021/10/16 08:27:34;;;;;;;26.63;13.10;;;;;;;10.28;89.24;97171.97;5075431;28;20197;-74
2021/10/16 08:29:59;;;;;;;24.60;13.67;;;;;;;10.49;88.59;97165.53;5075506;28;20181;-74
2021/10/16 08:32:24;;;;;;;24.77;14.73;;;;;;;10.59;89.07;97166.63;5075622;28;20672;-74
2021/10/16 08:34:50;;;;;;;25.03;13.93;;;;;;;10.60;88.81;97173.50;5075003;28;20230;-74
2021/10/16 08:37:15;;;;;;;29.07;15.70;;;;;;;10.88;88.32;97180.06;5073598;28;20217;-74
2021/10/16 08:39:40;;;;;;;27.70;14.13;;;;;;;10.63;88.22;97175.69;5074990;28;20224;-74
2021/10/16 08:42:11;;;;;;;23.23;14.87;;;;;;;10.62;89.24;97176.72;5057245;28;20211;-74
2021/10/16 08:44:36;;;;;;;21.27;13.53;;;;;;;10.63;89.77;97180.13;5074241;28;20169;-73
2021/10/16 08:47:02;;;;;;;28.13;14.80;;;;;;;10.64;90.00;97179.94;5074879;28;20705;-73
2021/10/16 08:49:32;;;;;;;22.97;13.90;;;;;;;11.04;88.13;97180.28;5073716;28;20177;-74
2021/10/16 08:51:58;;;;;;;26.63;14.73;;;;;;;11.27;86.75;97182.22;5074235;28;20268;-73
2021/10/16 08:54:24;;;;;;;24.53;14.73;;;;;;;11.29;85.86;97182.00;5074843;28;20181;-74
2021/10/16 08:56:49;;;;;;;23.30;13.97;;;;;;;11.29;85.72;97180.19;5056710;28;20196;-74
2021/10/16 08:59:15;;;;;;;22.47;13.57;;;;;;;11.41;85.34;97188.94;5056677;28;20234;-74
2021/10/16 09:01:55;;;;;;;24.13;13.67;;;;;;;11.51;84.05;97185.78;5074926;28;20717;-74
2021/10/16 09:04:21;;;;;;;22.33;13.20;;;;;;;11.36;84.97;97186.19;5074708;28;20181;-73
2021/10/16 09:06:46;;;;;;;18.90;11.33;;;;;;;11.21;85.29;97190.97;5074871;28;20190;-74
2021/10/16 09:09:12;;;;;;;16.03;10.57;;;;;;;11.36;85.24;97183.56;5075040;28;20189;-74
2021/10/16 09:11:48;;;;;;;14.10;10.47;;;;;;;11.55;84.26;97185.09;5073946;28;20231;-74
2021/10/16 09:14:23;;;;;;;17.83;10.97;;;;;;;11.92;82.61;97188.47;5074151;28;20176;-73
2021/10/16 09:17:01;;;;;;;19.53;11.83;;;;;;;11.83;82.31;97192.41;5074214;28;20242;-74
2021/10/16 09:19:33;;;;;;;21.87;13.83;;;;;;;11.53;83.54;97188.97;5074463;28;20201;-73
2021/10/16 09:22:04;;;;;;;19.20;12.30;;;;;;;11.20;84.99;97192.03;5074001;28;20216;-73
2021/10/16 09:24:34;;;;;;;22.27;11.70;;;;;;;11.02;86.47;97186.78;5074139;28;20173;-74
2021/10/16 09:27:02;;;;;;;22.97;13.03;;;;;;;11.17;85.61;97193.25;5074117;28;20169;-74
2021/10/16 09:29:31;;;;;;;20.67;12.37;;;;;;;11.18;85.67;97189.63;5073106;28;20242;-74
2021/10/16 09:31:59;;;;;;;17.33;11.57;;;;;;;11.29;84.94;97188.06;5052517;28;20178;-74
2021/10/16 09:34:31;;;;;;;22.13;13.10;;;;;;;11.27;85.44;97190.09;5058525;28;20285;-74
2021/10/16 09:37:03;;;;;;;19.10;12.13;;;;;;;11.51;84.24;97189.19;5064522;28;20665;-74
2021/10/16 09:39:29;;;;;;;20.67;11.83;;;;;;;11.70;82.63;97192.59;5055468;28;20220;-74
2021/10/16 09:41:55;;;;;;;18.90;11.37;;;;;;;11.47;83.18;97187.25;5067073;28;20182;-74
2021/10/16 09:44:23;;;;;;;18.70;13.00;;;;;;;11.44;84.23;97185.84;5064563;28;20260;-74
2021/10/16 09:46:59;;;;;;;17.07;11.70;;;;;;;11.65;83.74;97181.94;5051301;28;20192;-75
2021/10/16 09:49:37;;;;;;;17.30;11.40;;;;;;;11.95;82.17;97180.13;5058308;28;20205;-74
2021/10/16 09:52:09;;;;;;;18.33;10.93;;;;;;;12.35;80.49;97182.94;5067049;28;20715;-75
2021/10/16 09:54:35;;;;;;;17.77;11.70;;;;;;;12.27;79.76;97191.13;5054530;28;20240;-77
2021/10/16 09:57:06;;;;;;;15.93;10.90;;;;;;;11.83;81.15;97191.63;5043930;28;20174;-76
2021/10/16 09:59:33;;;;;;;14.63;10.40;;;;;;;11.89;80.85;97183.63;5064937;28;20197;-77
2021/10/16 10:02:00;;;;;;;17.23;11.53;;;;;;;12.00;81.01;97179.44;5073244;28;20169;-77
2021/10/16 10:04:27;;;;;;;16.23;10.57;;;;;;;11.99;80.03;97183.88;5064666;28;20189;-75
2021/10/16 10:06:56;;;;;;;15.27;11.20;;;;;;;12.15;79.38;97177.16;5071790;28;20510;-77
2021/10/16 10:09:23;;;;;;;17.13;10.67;;;;;;;12.65;78.33;97172.28;5049362;28;20194;-77
2021/10/16 10:11:52;;;;;;;19.13;11.43;;;;;;;11.65;81.18;97184.56;5049575;28;20654;-78
2021/10/16 10:14:19;;;;;;;18.07;10.70;;;;;;;11.98;81.17;97174.41;5062942;28;20177;-75
2021/10/16 10:16:46;;;;;;;19.07;11.23;;;;;;;12.09;79.64;97178.88;5072422;28;20319;-75
2021/10/16 10:19:13;;;;;;;17.33;11.60;;;;;;;12.26;79.24;97178.25;5061683;28;20228;-75
2021/10/16 10:21:39;;;;;;;15.70;11.10;;;;;;;13.07;76.89;97182.63;5053952;28;20189;-75
2021/10/16 10:24:07;;;;;;;17.20;11.63;;;;;;;13.06;75.18;97181.03;5043194;28;20186;-74
2021/10/16 10:26:38;;;;;;;15.17;11.53;;;;;;;12.96;76.08;97176.38;5053638;28;20668;-75
2021/10/16 10:29:10;;;;;;;14.60;11.10;;;;;;;13.22;75.60;97180.34;5065390;28;20202;-75
2021/10/16 10:31:44;;;;;;;18.43;11.20;;;;;;;13.30;74.50;97178.16;5059096;28;20196;-74
2021/10/16 10:34:42;;;;;;;15.27;11.23;;;;;;;13.39;73.43;97178.56;5065640;28;20184;-77
2021/10/16 10:37:14;;;;;;;15.20;11.10;;;;;;;13.73;72.46;97175.00;5035204;28;20215;-75
2021/10/16 10:39:40;;;;;;;15.33;10.83;;;;;;;13.98;70.81;97173.84;5069320;28;20213;-75
2021/10/16 10:42:09;;;;;;;15.20;10.57;;;;;;;14.56;68.76;97171.63;5043322;28;20204;-75
2021/10/16 10:44:39;;;;;;;17.13;11.00;;;;;;;15.14;67.10;97169.50;5064528;28;20193;-74
2021/10/16 10:47:33;;;;;;;15.83;11.53;;;;;;;14.43;68.26;97171.94;5069205;28;20171;-73
2021/10/16 10:50:01;;;;;;;15.27;11.50;;;;;;;14.85;67.63;97166.22;5063499;28;20174;-75
2021/10/16 10:52:47;;;;;;;14.90;10.40;;;;;;;14.84;67.88;97162.78;5054052;28;20204;-75
2021/10/16 10:55:14;;;;;;;14.30;10.50;;;;;;;14.60;67.04;97164.00;5069394;28;20177;-75
2021/10/16 10:57:46;;;;;;;14.93;11.07;;;;;;;15.02;66.46;97160.88;5061235;28;20193;-76
2021/10/16 11:00:28;;;;;;;13.83;10.27;;;;;;;15.35;65.06;97161.56;5055744;28;20753;-75
2021/10/16 11:02:53;;;;;;;16.87;10.97;;;;;;;14.73;67.33;97160.22;5069935;28;20697;-74
2021/10/16 11:08:11;;;;;;;13.13;10.33;;;;;;;14.91;66.73;97152.84;5064039;28;20276;-74
2021/10/16 11:10:37;;;;;;;15.30;10.77;;;;;;;14.68;67.59;97150.41;5054487;28;20227;-74
2021/10/16 11:13:11;;;;;;;12.47;9.70;;;;;;;14.10;68.65;97148.19;5038677;28;20220;-75
2021/10/16 11:15:37;;;;;;;12.43;9.50;;;;;;;13.92;70.11;97145.81;5059195;28;20645;-75
2021/10/16 11:18:10;;;;;;;14.50;10.33;;;;;;;14.20;69.33;97150.22;5053199;28;20185;-75
2021/10/16 11:20:35;;;;;;;12.67;9.90;;;;;;;14.62;67.80;97143.47;5064643;28;20299;-75
2021/10/16 11:23:01;;;;;;;15.67;10.90;;;;;;;14.36;68.95;97139.66;5056967;28;20193;-75
2021/10/16 11:25:31;;;;;;;17.20;11.50;;;;;;;13.68;71.50;97138.03;5042444;28;20180;-75
2021/10/16 11:28:05;;;;;;;13.63;10.10;;;;;;;13.69;71.67;97142.28;5066364;28;20688;-75
2021/10/16 11:30:33;;;;;;;15.40;10.67;;;;;;;13.58;71.52;97131.78;5055089;28;20185;-75